sensor_id;sensor_type;location;lat;lon;timestamp;temperature;humidity
1411;DHT22;700;51.906;8.404;2024-03-17T00:03:54;10.00;99.90
1411;DHT22;700;51.906;8.404;2024-03-17T00:08:59;10.10;99.90
1411;DHT22;700;51.906;8.404;2024-03-17T00:14:05;10.00;99.90
1411;DHT22;700;51.906;8.404;2024-03-17T00:19:08;10.00;99.90
1411;DHT22;700;51.906;8.404;2024-03-17T00:24:09;10.00;99.90
1411;DHT22;700;51.906;8.404;2024-03-17T00:29:10;9.90;99.90
1411;DHT22;700;51.906;8.404;2024-03-17T00:34:15;10.20;99.90
1411;DHT22;700;51.906;8.404;2024-03-17T00:39:15;10.00;99.90
1411;DHT22;700;51.906;8.404;2024-03-17T00:44:19;9.70;99.90
1411;DHT22;700;51.906;8.404;2024-03-17T00:49:20;9.70;99.90
1411;DHT22;700;51.906;8.404;2024-03-17T00:54:23;9.40;99.90
1411;DHT22;700;51.906;8.404;2024-03-17T00:59:23;9.10;99.90
1411;DHT22;700;51.906;8.404;2024-03-17T01:04:26;9.10;99.90
1411;DHT22;700;51.906;8.404;2024-03-17T01:09:29;9.00;99.90
1411;DHT22;700;51.906;8.404;2024-03-17T01:14:32;8.90;99.90
1411;DHT22;700;51.906;8.404;2024-03-17T01:19:34;8.70;99.90
1411;DHT22;700;51.906;8.404;2024-03-17T01:24:35;8.70;99.90
1411;DHT22;700;51.906;8.404;2024-03-17T01:29:35;8.70;99.90
1411;DHT22;700;51.906;8.404;2024-03-17T01:34:39;8.70;99.90
1411;DHT22;700;51.906;8.404;2024-03-17T01:39:44;8.40;99.90
1411;DHT22;700;51.906;8.404;2024-03-17T01:44:49;8.30;99.90
1411;DHT22;700;51.906;8.404;2024-03-17T01:49:51;8.10;99.90
1411;DHT22;700;51.906;8.404;2024-03-17T01:54:57;8.10;99.90
1411;DHT22;700;51.906;8.404;2024-03-17T02:00:00;7.70;99.90
1411;DHT22;700;51.906;8.404;2024-03-17T02:05:02;7.00;99.90
1411;DHT22;700;51.906;8.404;2024-03-17T02:10:04;7.40;99.90
1411;DHT22;700;51.906;8.404;2024-03-17T02:15:08;7.60;99.90
1411;DHT22;700;51.906;8.404;2024-03-17T02:20:09;7.70;99.90
1411;DHT22;700;51.906;8.404;2024-03-17T02:25:14;7.70;99.90
1411;DHT22;700;51.906;8.404;2024-03-17T02:30:19;7.90;99.90
1411;DHT22;700;51.906;8.404;2024-03-17T02:35:23;7.50;99.90
1411;DHT22;700;51.906;8.404;2024-03-17T02:40:23;7.40;99.90
1411;DHT22;700;51.906;8.404;2024-03-17T02:45:26;7.30;99.90
1411;DHT22;700;51.906;8.404;2024-03-17T02:50:32;7.10;99.90
1411;DHT22;700;51.906;8.404;2024-03-17T02:55:32;7.30;99.90
1411;DHT22;700;51.906;8.404;2024-03-17T03:00:35;6.80;99.90
1411;DHT22;700;51.906;8.404;2024-03-17T03:05:40;6.90;99.90
1411;DHT22;700;51.906;8.404;2024-03-17T03:10:44;6.90;99.90
1411;DHT22;700;51.906;8.404;2024-03-17T03:15:47;6.20;99.90
1411;DHT22;700;51.906;8.404;2024-03-17T03:20:51;6.50;99.90
1411;DHT22;700;51.906;8.404;2024-03-17T03:25:56;6.80;99.90
1411;DHT22;700;51.906;8.404;2024-03-17T03:30:57;7.00;99.90
1411;DHT22;700;51.906;8.404;2024-03-17T03:41:14;7.10;99.90
1411;DHT22;700;51.906;8.404;2024-03-17T03:46:15;7.20;99.90
1411;DHT22;700;51.906;8.404;2024-03-17T03:51:18;6.60;99.90
1411;DHT22;700;51.906;8.404;2024-03-17T03:56:23;6.50;99.90
1411;DHT22;700;51.906;8.404;2024-03-17T04:01:28;6.80;99.90
1411;DHT22;700;51.906;8.404;2024-03-17T04:06:34;6.80;99.90
1411;DHT22;700;51.906;8.404;2024-03-17T04:11:34;6.60;99.90
1411;DHT22;700;51.906;8.404;2024-03-17T04:16:36;6.30;99.90
1411;DHT22;700;51.906;8.404;2024-03-17T04:21:39;6.30;99.90
1411;DHT22;700;51.906;8.404;2024-03-17T04:26:42;6.40;99.90
1411;DHT22;700;51.906;8.404;2024-03-17T04:31:46;6.60;99.90
1411;DHT22;700;51.906;8.404;2024-03-17T04:36:49;6.60;99.90
1411;DHT22;700;51.906;8.404;2024-03-17T04:41:50;5.90;99.90
1411;DHT22;700;51.906;8.404;2024-03-17T04:46:50;6.10;99.90
1411;DHT22;700;51.906;8.404;2024-03-17T04:51:53;5.80;99.90
1411;DHT22;700;51.906;8.404;2024-03-17T04:56:54;5.90;99.90
1411;DHT22;700;51.906;8.404;2024-03-17T05:01:56;6.00;99.90
1411;DHT22;700;51.906;8.404;2024-03-17T05:06:56;5.80;99.90
1411;DHT22;700;51.906;8.404;2024-03-17T05:11:57;6.00;99.90
1411;DHT22;700;51.906;8.404;2024-03-17T05:16:58;6.00;99.90
1411;DHT22;700;51.906;8.404;2024-03-17T05:21:58;5.90;99.90
1411;DHT22;700;51.906;8.404;2024-03-17T05:27:00;5.80;99.90
1411;DHT22;700;51.906;8.404;2024-03-17T05:32:31;6.10;99.90
1411;DHT22;700;51.906;8.404;2024-03-17T05:37:41;5.90;99.90
1411;DHT22;700;51.906;8.404;2024-03-17T05:42:44;6.20;99.90
1411;DHT22;700;51.906;8.404;2024-03-17T05:47:49;5.90;99.90
1411;DHT22;700;51.906;8.404;2024-03-17T05:52:50;5.80;99.90
1411;DHT22;700;51.906;8.404;2024-03-17T05:57:51;5.60;99.90
1411;DHT22;700;51.906;8.404;2024-03-17T06:02:57;5.80;99.90
1411;DHT22;700;51.906;8.404;2024-03-17T06:08:01;5.90;99.90
1411;DHT22;700;51.906;8.404;2024-03-17T06:13:03;5.80;99.90
1411;DHT22;700;51.906;8.404;2024-03-17T06:18:04;5.80;99.90
1411;DHT22;700;51.906;8.404;2024-03-17T06:23:05;5.90;99.90
1411;DHT22;700;51.906;8.404;2024-03-17T06:28:06;6.20;99.90
1411;DHT22;700;51.906;8.404;2024-03-17T06:33:06;6.40;99.90
1411;DHT22;700;51.906;8.404;2024-03-17T06:38:08;6.50;99.90
1411;DHT22;700;51.906;8.404;2024-03-17T06:43:15;6.40;99.90
1411;DHT22;700;51.906;8.404;2024-03-17T06:48:15;6.80;99.90
1411;DHT22;700;51.906;8.404;2024-03-17T06:53:16;7.50;99.90
1411;DHT22;700;51.906;8.404;2024-03-17T06:58:16;8.20;99.90
1411;DHT22;700;51.906;8.404;2024-03-17T07:03:20;8.50;99.90
1411;DHT22;700;51.906;8.404;2024-03-17T07:08:21;8.40;99.90
1411;DHT22;700;51.906;8.404;2024-03-17T07:13:22;9.30;99.90
1411;DHT22;700;51.906;8.404;2024-03-17T07:18:22;9.20;99.90
1411;DHT22;700;51.906;8.404;2024-03-17T07:23:25;9.80;99.90
1411;DHT22;700;51.906;8.404;2024-03-17T07:28:26;10.00;99.90
1411;DHT22;700;51.906;8.404;2024-03-17T07:33:27;10.60;99.90
1411;DHT22;700;51.906;8.404;2024-03-17T07:38:29;10.80;99.90
1411;DHT22;700;51.906;8.404;2024-03-17T07:43:33;11.80;99.90
1411;DHT22;700;51.906;8.404;2024-03-17T07:48:39;12.30;99.90
1411;DHT22;700;51.906;8.404;2024-03-17T07:53:41;12.00;99.90
1411;DHT22;700;51.906;8.404;2024-03-17T07:58:45;12.20;99.90
1411;DHT22;700;51.906;8.404;2024-03-17T08:03:47;12.40;99.90
1411;DHT22;700;51.906;8.404;2024-03-17T08:08:55;12.00;99.90
1411;DHT22;700;51.906;8.404;2024-03-17T08:13:57;12.80;99.90
1411;DHT22;700;51.906;8.404;2024-03-17T08:18:58;13.40;99.90
1411;DHT22;700;51.906;8.404;2024-03-17T08:23:58;15.60;99.90
1411;DHT22;700;51.906;8.404;2024-03-17T08:29:03;16.20;99.90
1411;DHT22;700;51.906;8.404;2024-03-17T08:34:06;16.30;99.90
1411;DHT22;700;51.906;8.404;2024-03-17T08:39:10;18.00;99.90
1411;DHT22;700;51.906;8.404;2024-03-17T08:44:14;18.40;98.10
1411;DHT22;700;51.906;8.404;2024-03-17T08:49:38;18.70;96.50
1411;DHT22;700;51.906;8.404;2024-03-17T08:54:51;19.50;93.30
1411;DHT22;700;51.906;8.404;2024-03-17T08:59:57;20.50;86.40
1411;DHT22;700;51.906;8.404;2024-03-17T09:05:00;20.90;81.90
1411;DHT22;700;51.906;8.404;2024-03-17T09:10:05;20.70;78.60
1411;DHT22;700;51.906;8.404;2024-03-17T09:15:09;20.90;73.10
1411;DHT22;700;51.906;8.404;2024-03-17T09:20:13;22.00;69.80
1411;DHT22;700;51.906;8.404;2024-03-17T09:25:15;22.10;67.20
1411;DHT22;700;51.906;8.404;2024-03-17T09:30:15;20.90;65.80
1411;DHT22;700;51.906;8.404;2024-03-17T09:35:16;22.70;62.60
1411;DHT22;700;51.906;8.404;2024-03-17T09:40:17;21.70;62.80
1411;DHT22;700;51.906;8.404;2024-03-17T09:45:22;21.40;63.00
1411;DHT22;700;51.906;8.404;2024-03-17T09:50:25;22.40;61.90
1411;DHT22;700;51.906;8.404;2024-03-17T09:55:26;24.50;57.60
1411;DHT22;700;51.906;8.404;2024-03-17T10:00:29;28.70;49.60
1411;DHT22;700;51.906;8.404;2024-03-17T10:05:32;32.30;41.40
1411;DHT22;700;51.906;8.404;2024-03-17T10:10:35;29.10;38.90
1411;DHT22;700;51.906;8.404;2024-03-17T10:15:48;28.30;41.10
1411;DHT22;700;51.906;8.404;2024-03-17T10:20:49;30.70;39.10
1411;DHT22;700;51.906;8.404;2024-03-17T10:25:59;27.90;40.40
1411;DHT22;700;51.906;8.404;2024-03-17T10:31:00;29.00;40.40
1411;DHT22;700;51.906;8.404;2024-03-17T10:36:01;28.20;38.40
1411;DHT22;700;51.906;8.404;2024-03-17T10:41:06;28.20;38.90
1411;DHT22;700;51.906;8.404;2024-03-17T10:46:07;30.40;38.00
1411;DHT22;700;51.906;8.404;2024-03-17T10:51:15;30.10;33.90
1411;DHT22;700;51.906;8.404;2024-03-17T10:56:19;28.50;36.20
1411;DHT22;700;51.906;8.404;2024-03-17T11:01:20;29.20;36.00
1411;DHT22;700;51.906;8.404;2024-03-17T11:06:21;31.80;36.20
1411;DHT22;700;51.906;8.404;2024-03-17T11:11:36;31.60;33.80
1411;DHT22;700;51.906;8.404;2024-03-17T11:16:40;32.00;31.80
1411;DHT22;700;51.906;8.404;2024-03-17T11:21:46;29.60;33.80
1411;DHT22;700;51.906;8.404;2024-03-17T11:26:49;25.70;37.70
1411;DHT22;700;51.906;8.404;2024-03-17T11:31:52;25.80;40.40
1411;DHT22;700;51.906;8.404;2024-03-17T11:36:57;24.30;40.40
1411;DHT22;700;51.906;8.404;2024-03-17T11:42:05;24.50;40.90
1411;DHT22;700;51.906;8.404;2024-03-17T11:47:11;24.20;41.10
1411;DHT22;700;51.906;8.404;2024-03-17T11:52:13;23.20;42.00
1411;DHT22;700;51.906;8.404;2024-03-17T11:57:21;23.90;41.20
1411;DHT22;700;51.906;8.404;2024-03-17T12:02:30;23.60;42.10
1411;DHT22;700;51.906;8.404;2024-03-17T12:07:31;24.10;44.10
1411;DHT22;700;51.906;8.404;2024-03-17T12:12:34;23.00;43.80
1411;DHT22;700;51.906;8.404;2024-03-17T12:17:35;21.00;45.00
1411;DHT22;700;51.906;8.404;2024-03-17T12:22:36;22.40;45.50
1411;DHT22;700;51.906;8.404;2024-03-17T12:27:37;22.10;45.30
1411;DHT22;700;51.906;8.404;2024-03-17T12:32:38;20.70;46.90
1411;DHT22;700;51.906;8.404;2024-03-17T12:37:42;22.40;45.20
1411;DHT22;700;51.906;8.404;2024-03-17T12:42:48;21.60;46.30
1411;DHT22;700;51.906;8.404;2024-03-17T12:47:51;22.00;46.30
1411;DHT22;700;51.906;8.404;2024-03-17T12:52:54;21.80;46.10
1411;DHT22;700;51.906;8.404;2024-03-17T13:03:37;19.30;49.80
1411;DHT22;700;51.906;8.404;2024-03-17T13:08:40;20.20;49.70
1411;DHT22;700;51.906;8.404;2024-03-17T13:13:43;18.80;49.60
1411;DHT22;700;51.906;8.404;2024-03-17T13:18:44;17.80;51.40
1411;DHT22;700;51.906;8.404;2024-03-17T13:23:47;17.20;52.70
1411;DHT22;700;51.906;8.404;2024-03-17T13:28:50;17.30;54.80
1411;DHT22;700;51.906;8.404;2024-03-17T13:33:53;17.10;55.20
1411;DHT22;700;51.906;8.404;2024-03-17T13:38:56;16.90;55.00
1411;DHT22;700;51.906;8.404;2024-03-17T13:43:59;16.70;56.30
1411;DHT22;700;51.906;8.404;2024-03-17T13:49:07;16.60;56.10
1411;DHT22;700;51.906;8.404;2024-03-17T13:54:16;16.70;56.80
1411;DHT22;700;51.906;8.404;2024-03-17T13:59:17;16.50;56.80
1411;DHT22;700;51.906;8.404;2024-03-17T14:04:20;16.60;59.10
1411;DHT22;700;51.906;8.404;2024-03-17T14:09:23;16.40;58.90
1411;DHT22;700;51.906;8.404;2024-03-17T14:14:24;16.30;59.00
1411;DHT22;700;51.906;8.404;2024-03-17T14:19:27;16.20;59.60
1411;DHT22;700;51.906;8.404;2024-03-17T14:24:27;15.90;61.10
1411;DHT22;700;51.906;8.404;2024-03-17T14:29:33;15.80;62.60
1411;DHT22;700;51.906;8.404;2024-03-17T14:34:36;15.80;62.90
1411;DHT22;700;51.906;8.404;2024-03-17T14:39:38;16.10;63.30
1411;DHT22;700;51.906;8.404;2024-03-17T14:44:44;16.30;63.30
1411;DHT22;700;51.906;8.404;2024-03-17T14:49:47;15.80;64.80
1411;DHT22;700;51.906;8.404;2024-03-17T14:54:48;15.70;65.90
1411;DHT22;700;51.906;8.404;2024-03-17T14:59:52;15.70;66.80
1411;DHT22;700;51.906;8.404;2024-03-17T15:04:53;15.80;67.60
1411;DHT22;700;51.906;8.404;2024-03-17T15:09:54;15.50;68.70
1411;DHT22;700;51.906;8.404;2024-03-17T15:14:58;15.70;69.30
1411;DHT22;700;51.906;8.404;2024-03-17T15:19:58;15.70;70.30
1411;DHT22;700;51.906;8.404;2024-03-17T15:25:01;15.50;71.90
1411;DHT22;700;51.906;8.404;2024-03-17T15:30:07;15.40;72.70
1411;DHT22;700;51.906;8.404;2024-03-17T15:35:09;15.50;74.20
1411;DHT22;700;51.906;8.404;2024-03-17T15:40:13;15.50;75.00
1411;DHT22;700;51.906;8.404;2024-03-17T15:45:20;15.00;76.80
1411;DHT22;700;51.906;8.404;2024-03-17T15:50:23;15.20;76.90
1411;DHT22;700;51.906;8.404;2024-03-17T15:55:25;15.00;78.00
1411;DHT22;700;51.906;8.404;2024-03-17T16:00:27;15.00;79.10
1411;DHT22;700;51.906;8.404;2024-03-17T16:05:30;15.30;79.40
1411;DHT22;700;51.906;8.404;2024-03-17T16:10:33;14.70;82.50
1411;DHT22;700;51.906;8.404;2024-03-17T16:15:33;14.90;84.10
1411;DHT22;700;51.906;8.404;2024-03-17T16:25:49;14.70;85.90
1411;DHT22;700;51.906;8.404;2024-03-17T16:30:50;15.00;86.60
1411;DHT22;700;51.906;8.404;2024-03-17T16:35:51;15.10;87.00
1411;DHT22;700;51.906;8.404;2024-03-17T16:40:52;15.00;88.80
1411;DHT22;700;51.906;8.404;2024-03-17T16:51:35;14.90;90.20
1411;DHT22;700;51.906;8.404;2024-03-17T17:02:16;14.60;91.70
1411;DHT22;700;51.906;8.404;2024-03-17T17:07:17;14.30;92.80
1411;DHT22;700;51.906;8.404;2024-03-17T17:12:18;14.30;94.10
1411;DHT22;700;51.906;8.404;2024-03-17T17:17:21;14.40;94.70
1411;DHT22;700;51.906;8.404;2024-03-17T17:22:21;14.40;94.80
1411;DHT22;700;51.906;8.404;2024-03-17T17:27:22;14.00;96.30
1411;DHT22;700;51.906;8.404;2024-03-17T17:32:36;14.00;97.00
1411;DHT22;700;51.906;8.404;2024-03-17T17:37:37;14.20;97.60
1411;DHT22;700;51.906;8.404;2024-03-17T17:42:38;13.90;98.20
1411;DHT22;700;51.906;8.404;2024-03-17T17:47:41;13.70;99.20
1411;DHT22;700;51.906;8.404;2024-03-17T17:52:45;13.60;99.80
1411;DHT22;700;51.906;8.404;2024-03-17T17:57:46;13.60;99.90
1411;DHT22;700;51.906;8.404;2024-03-17T18:02:47;13.60;99.90
1411;DHT22;700;51.906;8.404;2024-03-17T18:07:50;13.40;99.90
1411;DHT22;700;51.906;8.404;2024-03-17T18:12:50;13.30;99.90
1411;DHT22;700;51.906;8.404;2024-03-17T18:17:51;13.40;99.90
1411;DHT22;700;51.906;8.404;2024-03-17T18:22:54;13.20;99.90
1411;DHT22;700;51.906;8.404;2024-03-17T18:27:54;13.30;99.90
1411;DHT22;700;51.906;8.404;2024-03-17T18:32:55;13.30;99.90
1411;DHT22;700;51.906;8.404;2024-03-17T18:38:01;13.20;99.90
1411;DHT22;700;51.906;8.404;2024-03-17T18:43:03;13.50;99.90
1411;DHT22;700;51.906;8.404;2024-03-17T18:48:04;13.30;99.90
1411;DHT22;700;51.906;8.404;2024-03-17T18:53:09;13.20;99.90
1411;DHT22;700;51.906;8.404;2024-03-17T18:58:12;13.40;99.90
1411;DHT22;700;51.906;8.404;2024-03-17T19:03:13;13.20;99.90
1411;DHT22;700;51.906;8.404;2024-03-17T19:08:14;13.20;99.90
1411;DHT22;700;51.906;8.404;2024-03-17T19:13:16;13.00;99.90
1411;DHT22;700;51.906;8.404;2024-03-17T19:18:16;12.70;99.90
1411;DHT22;700;51.906;8.404;2024-03-17T19:23:17;12.80;99.90
1411;DHT22;700;51.906;8.404;2024-03-17T19:28:18;12.80;99.90
1411;DHT22;700;51.906;8.404;2024-03-17T19:33:21;12.90;99.90
1411;DHT22;700;51.906;8.404;2024-03-17T19:38:24;13.20;99.90
1411;DHT22;700;51.906;8.404;2024-03-17T19:43:30;12.80;99.90
1411;DHT22;700;51.906;8.404;2024-03-17T19:48:33;12.60;99.90
1411;DHT22;700;51.906;8.404;2024-03-17T19:53:37;12.70;99.90
1411;DHT22;700;51.906;8.404;2024-03-17T19:58:39;12.80;99.90
1411;DHT22;700;51.906;8.404;2024-03-17T20:03:42;12.40;99.90
1411;DHT22;700;51.906;8.404;2024-03-17T20:08:43;12.50;99.90
1411;DHT22;700;51.906;8.404;2024-03-17T20:13:44;12.50;99.90
1411;DHT22;700;51.906;8.404;2024-03-17T20:18:46;12.00;99.90
1411;DHT22;700;51.906;8.404;2024-03-17T20:23:47;12.20;99.90
1411;DHT22;700;51.906;8.404;2024-03-17T20:28:47;12.20;99.90
1411;DHT22;700;51.906;8.404;2024-03-17T20:33:50;12.10;99.90
1411;DHT22;700;51.906;8.404;2024-03-17T20:38:51;12.00;99.90
1411;DHT22;700;51.906;8.404;2024-03-17T20:43:59;11.90;99.90
1411;DHT22;700;51.906;8.404;2024-03-17T20:49:02;11.60;99.90
1411;DHT22;700;51.906;8.404;2024-03-17T20:54:03;11.80;99.90
1411;DHT22;700;51.906;8.404;2024-03-17T20:59:05;11.80;99.90
1411;DHT22;700;51.906;8.404;2024-03-17T21:04:07;12.00;99.90
1411;DHT22;700;51.906;8.404;2024-03-17T21:09:10;11.80;99.90
1411;DHT22;700;51.906;8.404;2024-03-17T21:14:11;12.00;99.90
1411;DHT22;700;51.906;8.404;2024-03-17T21:19:14;12.20;99.90
1411;DHT22;700;51.906;8.404;2024-03-17T21:24:15;12.10;99.90
1411;DHT22;700;51.906;8.404;2024-03-17T21:29:15;12.20;99.90
1411;DHT22;700;51.906;8.404;2024-03-17T21:34:18;11.70;99.90
1411;DHT22;700;51.906;8.404;2024-03-17T21:39:24;11.90;99.90
1411;DHT22;700;51.906;8.404;2024-03-17T21:44:26;11.90;99.90
1411;DHT22;700;51.906;8.404;2024-03-17T21:49:31;11.80;99.90
1411;DHT22;700;51.906;8.404;2024-03-17T21:54:34;11.70;99.90
1411;DHT22;700;51.906;8.404;2024-03-17T21:59:38;11.90;99.90
1411;DHT22;700;51.906;8.404;2024-03-17T22:04:43;11.50;99.90
1411;DHT22;700;51.906;8.404;2024-03-17T22:09:49;11.50;99.90
1411;DHT22;700;51.906;8.404;2024-03-17T22:14:51;11.20;99.90
1411;DHT22;700;51.906;8.404;2024-03-17T22:19:57;11.10;99.90
1411;DHT22;700;51.906;8.404;2024-03-17T22:25:01;11.10;99.90
1411;DHT22;700;51.906;8.404;2024-03-17T22:30:08;11.30;99.90
1411;DHT22;700;51.906;8.404;2024-03-17T22:35:10;11.20;99.90
1411;DHT22;700;51.906;8.404;2024-03-17T22:40:11;11.20;99.90
1411;DHT22;700;51.906;8.404;2024-03-17T22:45:13;11.10;99.90
1411;DHT22;700;51.906;8.404;2024-03-17T22:50:14;11.20;99.90
1411;DHT22;700;51.906;8.404;2024-03-17T22:55:20;11.40;99.90
1411;DHT22;700;51.906;8.404;2024-03-17T23:00:23;11.50;99.90
1411;DHT22;700;51.906;8.404;2024-03-17T23:05:36;11.40;99.90
1411;DHT22;700;51.906;8.404;2024-03-17T23:10:39;11.40;99.90
1411;DHT22;700;51.906;8.404;2024-03-17T23:15:42;11.30;99.90
1411;DHT22;700;51.906;8.404;2024-03-17T23:20:45;11.30;99.90
1411;DHT22;700;51.906;8.404;2024-03-17T23:25:48;11.20;99.90
1411;DHT22;700;51.906;8.404;2024-03-17T23:30:49;11.20;99.90
1411;DHT22;700;51.906;8.404;2024-03-17T23:35:50;11.10;99.90
1411;DHT22;700;51.906;8.404;2024-03-17T23:40:51;11.30;99.90
1411;DHT22;700;51.906;8.404;2024-03-17T23:45:52;11.40;99.90
1411;DHT22;700;51.906;8.404;2024-03-17T23:50:57;11.40;99.90
1411;DHT22;700;51.906;8.404;2024-03-17T23:55:58;11.70;99.90
